Capitol Logistics 230


KRFD
Chicago/Rockford International Airport
Rockford, Illinois, US
KPHX
Phoenix Sky Harbor International Airport
Phoenix, Arizona, US

Route Details

Aircraft Information
Primary: Boeing 767-300BDSF
Backup: Not Available
Route Data
Distance: 1204nm
Sched. Duration: 3h 14m
Avg. Duration: 3h 27m (+13m)
Times Flown: 6
Recm'd Route: DBQ J144 DSM OVR GLD ALS GUP EAGUL6
Planned Altitude: 34,000ft
Origin Wx: KRFD 160726Z 27004KT 2SM -SN BR OVC005 01/M01 A2958 RMK AO2 P0001 T00061011
Dest. Wx: KPHX 160651Z 09006KT 10SM CLR 13/M06 A3003 RMK AO2 SLP160 T01281056 402610067
Notes:

Financial History
Total Freight: 384,587lbs
Average Load: 64,098lbs/flt
Fuel Used: 193,514lbs
Avg. Fuel Used: 32,252lbs/flt
Fuel Expense: $139,146
Avg. Fuel Expense: $23,191
Avg. Fuel Cost: $0.72/lbs
Total Gross Income: $541,847
Pilot Pay: $1,214
Total Expenses: $58,831
Total Revenue: $339,625
Average Revenue: $90,307.84